createdAt,value
2023-02-27T00:08:34.836Z,-1.4
2023-02-27T00:27:53.754Z,-1.6
2023-02-27T00:47:11.655Z,-1.8
2023-02-27T01:06:28.501Z,-1.8
2023-02-27T01:25:46.381Z,-1.9
2023-02-27T01:45:04.690Z,-2.2
2023-02-27T02:04:22.704Z,-2.3
2023-02-27T02:23:41.050Z,-2.5
2023-02-27T02:42:59.376Z,-2.5
2023-02-27T03:02:18.022Z,-2.5
2023-02-27T03:21:36.674Z,-2.5
2023-02-27T03:40:54.956Z,-2.6
2023-02-27T04:00:12.656Z,-2.9
2023-02-27T04:19:33.475Z,-2.9
2023-02-27T04:38:51.400Z,-2.8
2023-02-27T04:58:09.796Z,-3.1
2023-02-27T05:17:27.458Z,-3.1
2023-02-27T05:36:46.321Z,-3.3
2023-02-27T05:56:03.663Z,-3.4
2023-02-27T06:15:21.429Z,-3.4
2023-02-27T06:34:39.215Z,-3
2023-02-27T06:53:59.379Z,-2.8
2023-02-27T07:13:19.153Z,-2.6
2023-02-27T07:32:36.935Z,-2.1
2023-02-27T07:51:55.874Z,-1.7
2023-02-27T08:11:15.858Z,-1.1
2023-02-27T08:30:35.099Z,0.8
2023-02-27T08:50:07.009Z,3.4
2023-02-27T09:09:17.196Z,2.6
2023-02-27T09:28:32.154Z,2.4
2023-02-27T09:48:04.897Z,5.7
2023-02-27T10:07:23.175Z,5
2023-02-27T10:26:30.787Z,4.2
2023-02-27T10:45:49.355Z,4.4
2023-02-27T11:05:07.865Z,4.6
2023-02-27T11:24:26.182Z,4.8
2023-02-27T11:43:42.646Z,5
2023-02-27T12:03:01.335Z,5.3
2023-02-27T12:22:20.468Z,5.4
2023-02-27T12:41:37.208Z,5.7
2023-02-27T13:00:55.444Z,5.7
2023-02-27T13:20:13.868Z,5.8
2023-02-27T13:39:29.938Z,5.8
2023-02-27T13:58:50.154Z,5.7
2023-02-27T14:18:15.876Z,5.7
2023-02-27T14:37:33.881Z,5.8
2023-02-27T14:56:50.503Z,5.7
2023-02-27T15:16:16.022Z,5
2023-02-27T15:35:23.554Z,4.9
2023-02-27T15:54:42.692Z,5.1
2023-02-27T16:13:58.201Z,4.5
2023-02-27T16:33:16.117Z,4.1
2023-02-27T16:52:32.719Z,3.7
2023-02-27T17:11:50.866Z,3.8
2023-02-27T17:31:06.722Z,3.4
2023-02-27T17:50:22.570Z,3.5
2023-02-27T18:09:40.731Z,3.7
2023-02-27T18:28:57.828Z,3.3
2023-02-27T18:48:15.173Z,3.2
2023-02-27T19:07:30.815Z,3
2023-02-27T19:26:47.164Z,2.7
2023-02-27T19:46:01.973Z,3
2023-02-27T20:05:20.267Z,2.8
2023-02-27T20:24:35.316Z,2.3
2023-02-27T20:43:51.905Z,1.9
2023-02-27T21:03:06.936Z,1.5
2023-02-27T21:22:23.253Z,1.3
2023-02-27T21:41:40.467Z,1.1
2023-02-27T22:00:57.794Z,1.1
2023-02-27T22:20:14.606Z,0.8
2023-02-27T22:39:30.455Z,0.5
2023-02-27T22:58:47.438Z,0.2
2023-02-27T23:18:05.861Z,0.1
2023-02-27T23:37:23.488Z,-0.2
2023-02-27T23:56:40.247Z,-0.3
